Niotaze, Kansas
Current Conditions -  °F | °C
As of 3:15 PM on Friday 24 Oct 2014 (Local Time) from KIDP Reporting Station
Haze Haze  
Wind Chill: 73°   Ceiling: Unl
Heat Index: 73°   Visibility: 2mi
Dew Point: 61°   Wind: 8mph
Humidity: 65%   Direction: 180°S
Pressure: 30.02"   Gusts: NA
Location:  37.07°N, 96.01°W
Report Text: KIDP 242015Z AUTO 18007KT 2SM HZ CLR 23/16 A3002 RMK AO2
Loading
Personal Weather Stations






























Interactive Weather Map
Tropical Storm Tracking
New forecast layout! Learn more

10-Day Weather Forecast

Advertisements
Track Severe Weather on mobile